createdAt,value
2023-04-26T00:00:06.194Z,77.30
2023-04-26T00:02:34.498Z,77.87
2023-04-26T00:05:05.379Z,78.18
2023-04-26T00:07:34.023Z,78.46
2023-04-26T00:10:02.456Z,77.86
2023-04-26T00:12:30.581Z,77.66
2023-04-26T00:15:02.753Z,78.04
2023-04-26T00:17:31.592Z,77.72
2023-04-26T00:19:59.995Z,77.30
2023-04-26T00:22:28.889Z,76.51
2023-04-26T00:24:57.277Z,78.72
2023-04-26T00:27:25.374Z,78.79
2023-04-26T00:29:53.562Z,77.99
2023-04-26T00:32:25.694Z,78.88
2023-04-26T00:34:53.745Z,79.03
2023-04-26T00:37:23.308Z,78.26
2023-04-26T00:39:51.403Z,77.73
2023-04-26T00:42:20.713Z,77.27
2023-04-26T00:44:50.374Z,77.34
2023-04-26T00:47:18.783Z,76.72
2023-04-26T00:49:48.284Z,76.65
2023-04-26T00:52:16.911Z,76.77
2023-04-26T00:54:45.572Z,77.16
2023-04-26T00:57:13.750Z,78.07
2023-04-26T00:59:42.196Z,78.67
2023-04-26T01:02:10.346Z,79.03
2023-04-26T01:04:40.792Z,78.81
2023-04-26T01:07:10.329Z,78.15
2023-04-26T01:09:38.499Z,78.85
2023-04-26T01:12:08.610Z,79.62
2023-04-26T01:14:37.938Z,79.87
2023-04-26T01:17:06.774Z,79.73
2023-04-26T01:19:37.775Z,79.62
2023-04-26T01:22:05.772Z,80.95
2023-04-26T01:24:37.377Z,81.18
2023-04-26T01:27:05.595Z,81.50
2023-04-26T01:29:36.695Z,82.04
2023-04-26T01:32:05.699Z,82.37
2023-04-26T01:34:34.556Z,81.81
2023-04-26T01:37:02.400Z,81.62
2023-04-26T01:39:30.373Z,81.77
2023-04-26T01:41:59.813Z,82.29
2023-04-26T01:44:27.637Z,82.54
2023-04-26T01:46:55.576Z,82.10
2023-04-26T01:49:25.700Z,80.97
2023-04-26T01:51:55.687Z,81.20
2023-04-26T01:54:25.172Z,81.28
2023-04-26T01:56:54.238Z,80.94
2023-04-26T01:59:23.577Z,80.73
2023-04-26T02:01:51.421Z,79.86
2023-04-26T02:04:19.591Z,79.15
2023-04-26T02:06:49.655Z,79.37
2023-04-26T02:09:18.425Z,79.37
2023-04-26T02:11:46.459Z,80.74
2023-04-26T02:14:15.800Z,80.89
2023-04-26T02:16:45.080Z,80.97
2023-04-26T02:19:14.581Z,82.36
2023-04-26T02:21:52.697Z,81.85
2023-04-26T02:24:21.603Z,81.93
2023-04-26T02:26:49.792Z,82.07
2023-04-26T02:29:17.817Z,81.75
2023-04-26T02:31:48.727Z,82.33
2023-04-26T02:34:19.342Z,81.57
2023-04-26T02:36:48.663Z,82.00
2023-04-26T02:39:16.873Z,81.31
2023-04-26T02:41:45.129Z,82.11
2023-04-26T02:44:12.970Z,82.65
2023-04-26T02:46:41.650Z,82.54
2023-04-26T02:49:13.047Z,83.00
2023-04-26T02:51:42.388Z,84.35
2023-04-26T02:54:10.194Z,82.87
2023-04-26T02:56:38.149Z,81.98
2023-04-26T02:59:07.213Z,82.54
2023-04-26T03:01:35.105Z,82.78
2023-04-26T03:04:03.897Z,82.50
2023-04-26T03:06:36.619Z,82.43
2023-04-26T03:09:05.658Z,82.08
2023-04-26T03:11:33.474Z,82.56
2023-04-26T03:14:01.270Z,82.59
2023-04-26T03:16:31.033Z,82.38
2023-04-26T03:18:58.896Z,81.66
2023-04-26T03:21:27.883Z,81.60
2023-04-26T03:23:57.209Z,82.12
2023-04-26T03:26:25.112Z,81.34
2023-04-26T03:28:53.322Z,81.36
2023-04-26T03:31:21.867Z,81.66
2023-04-26T03:33:49.947Z,81.47
2023-04-26T03:36:18.478Z,82.40
2023-04-26T03:38:46.382Z,82.67
2023-04-26T03:41:17.623Z,83.08
2023-04-26T03:43:45.506Z,82.20
2023-04-26T03:46:13.715Z,83.37
2023-04-26T03:48:41.481Z,83.10
2023-04-26T03:51:09.502Z,83.19
2023-04-26T03:53:51.733Z,83.58
2023-04-26T03:56:26.122Z,83.10
2023-04-26T03:58:54.731Z,84.05
2023-04-26T04:01:22.566Z,85.44
2023-04-26T04:03:50.512Z,84.87
2023-04-26T04:06:18.468Z,85.45
2023-04-26T04:08:46.885Z,84.55
2023-04-26T04:11:16.806Z,84.87
2023-04-26T04:13:46.918Z,84.45
2023-04-26T04:16:15.293Z,84.94
2023-04-26T04:18:43.173Z,85.00
2023-04-26T04:21:11.137Z,85.00
2023-04-26T04:23:39.833Z,83.97
2023-04-26T04:26:12.619Z,83.73
2023-04-26T04:28:41.522Z,85.13
2023-04-26T04:31:13.082Z,85.00
2023-04-26T04:33:41.572Z,84.76
2023-04-26T04:36:10.954Z,84.37
2023-04-26T04:38:38.812Z,84.91
2023-04-26T04:41:08.961Z,85.12
2023-04-26T04:43:37.452Z,87.55
2023-04-26T04:46:05.352Z,87.15
2023-04-26T04:48:35.721Z,87.09
2023-04-26T04:51:04.397Z,86.63
2023-04-26T04:53:32.302Z,85.20
2023-04-26T04:56:00.092Z,84.01
2023-04-26T04:58:27.899Z,83.90
2023-04-26T05:00:56.745Z,83.40
2023-04-26T05:03:27.829Z,83.13
2023-04-26T05:05:57.262Z,83.55
2023-04-26T05:08:25.929Z,83.40
2023-04-26T05:10:55.746Z,83.84
2023-04-26T05:13:24.209Z,85.37
2023-04-26T05:15:51.959Z,86.53
2023-04-26T05:18:19.919Z,86.72
2023-04-26T05:20:47.654Z,87.33
2023-04-26T05:23:16.793Z,87.77
2023-04-26T05:25:45.505Z,87.80
2023-04-26T05:28:45.833Z,86.96
2023-04-26T05:31:34.047Z,86.02
2023-04-26T05:34:08.998Z,84.69
2023-04-26T05:36:40.954Z,84.74
2023-04-26T05:39:10.171Z,85.43
2023-04-26T05:41:38.794Z,84.91
2023-04-26T05:44:06.640Z,84.52
2023-04-26T05:46:34.400Z,84.06
2023-04-26T05:49:02.274Z,82.97
2023-04-26T05:51:30.005Z,84.88
2023-04-26T05:53:58.086Z,85.68
2023-04-26T05:56:27.485Z,86.04
2023-04-26T05:58:56.714Z,86.10
2023-04-26T06:01:24.567Z,85.47
2023-04-26T06:03:54.372Z,85.77
2023-04-26T06:06:24.309Z,86.64
2023-04-26T06:08:52.909Z,86.10
2023-04-26T06:11:22.903Z,84.94
2023-04-26T06:13:52.431Z,84.94
2023-04-26T06:16:23.617Z,85.09
2023-04-26T06:18:51.844Z,82.96
2023-04-26T06:21:19.675Z,84.38
2023-04-26T06:23:47.427Z,83.09
2023-04-26T06:26:18.009Z,82.24
2023-04-26T06:28:45.783Z,81.75
2023-04-26T06:31:16.413Z,79.84
2023-04-26T06:33:44.426Z,79.54
2023-04-26T06:36:13.056Z,77.88
2023-04-26T06:38:42.072Z,76.95
2023-04-26T06:41:09.916Z,80.61
2023-04-26T06:43:38.151Z,78.45
2023-04-26T06:46:21.294Z,77.44
2023-04-26T06:48:54.536Z,75.92
2023-04-26T06:51:22.381Z,72.36
2023-04-26T06:53:50.311Z,73.84
2023-04-26T06:56:18.791Z,72.00
2023-04-26T06:58:59.636Z,70.71
2023-04-26T07:01:29.371Z,72.98
2023-04-26T07:03:58.534Z,71.52
2023-04-26T07:06:27.875Z,67.34
2023-04-26T07:08:55.633Z,63.10
2023-04-26T07:11:25.787Z,64.78
2023-04-26T07:13:54.308Z,66.10
2023-04-26T07:16:22.591Z,63.59
2023-04-26T07:18:53.132Z,62.05
2023-04-26T07:21:21.235Z,60.30
2023-04-26T07:23:49.482Z,58.45
2023-04-26T07:26:18.398Z,60.44
2023-04-26T07:28:46.452Z,59.25
2023-04-26T07:31:14.434Z,59.62
2023-04-26T07:33:43.109Z,58.62
2023-04-26T07:36:12.948Z,55.97
2023-04-26T07:38:41.195Z,55.60
2023-04-26T07:41:10.358Z,56.30
2023-04-26T07:43:39.623Z,54.42
2023-04-26T07:46:07.808Z,53.46
2023-04-26T07:48:35.823Z,53.06
2023-04-26T07:51:11.330Z,53.67
2023-04-26T07:53:41.253Z,52.33
2023-04-26T07:56:11.462Z,54.06
2023-04-26T07:58:41.736Z,54.07
2023-04-26T08:01:11.896Z,53.82
2023-04-26T08:03:40.001Z,52.64
2023-04-26T08:06:08.849Z,49.81
2023-04-26T08:08:42.805Z,47.58
2023-04-26T08:11:12.470Z,48.75
2023-04-26T08:13:40.534Z,48.65
2023-04-26T08:16:08.718Z,46.61
2023-04-26T08:18:36.860Z,49.68
2023-04-26T08:21:05.136Z,51.76
2023-04-26T08:23:35.918Z,50.07
2023-04-26T08:26:04.009Z,47.88
2023-04-26T08:28:45.567Z,49.87
2023-04-26T08:31:16.999Z,49.20
2023-04-26T08:33:45.602Z,49.53
2023-04-26T08:36:15.646Z,49.28
2023-04-26T08:38:43.601Z,50.49
2023-04-26T08:41:14.917Z,50.50
2023-04-26T08:43:44.894Z,46.92
2023-04-26T08:46:20.103Z,47.12
2023-04-26T08:48:55.887Z,47.07
2023-04-26T08:51:24.770Z,50.80
2023-04-26T08:53:54.744Z,50.34
2023-04-26T08:56:24.390Z,48.82
2023-04-26T08:58:54.686Z,49.13
2023-04-26T09:01:26.145Z,47.51
2023-04-26T09:03:56.711Z,47.39
2023-04-26T09:06:28.129Z,46.48
2023-04-26T09:08:58.686Z,49.40
2023-04-26T09:11:26.699Z,46.90
2023-04-26T09:13:58.405Z,48.03
2023-04-26T09:16:36.899Z,49.02
2023-04-26T09:19:04.972Z,50.75
2023-04-26T09:21:33.331Z,49.54
2023-04-26T09:24:04.514Z,48.03
2023-04-26T09:26:32.578Z,47.55
2023-04-26T09:29:18.940Z,46.48
2023-04-26T09:31:49.778Z,46.91
2023-04-26T09:34:18.097Z,47.76
2023-04-26T09:36:55.318Z,47.16
2023-04-26T09:39:34.370Z,47.04
2023-04-26T09:42:05.049Z,47.79
2023-04-26T09:44:34.812Z,47.28
2023-04-26T09:47:05.259Z,47.63
2023-04-26T09:49:35.072Z,45.37
2023-04-26T09:52:07.348Z,44.99
2023-04-26T09:54:44.793Z,47.78
2023-04-26T09:57:13.716Z,45.32
2023-04-26T09:59:47.375Z,43.45
2023-04-26T10:02:18.005Z,45.52
2023-04-26T10:04:48.130Z,45.84
2023-04-26T10:07:17.730Z,44.35
2023-04-26T10:09:47.076Z,43.29
2023-04-26T10:12:16.475Z,43.21
2023-04-26T10:14:47.054Z,41.56
2023-04-26T10:17:15.456Z,43.61
2023-04-26T10:19:46.604Z,42.25
2023-04-26T10:22:18.525Z,43.33
2023-04-26T10:24:47.146Z,43.97
2023-04-26T10:27:15.121Z,43.58
2023-04-26T10:30:10.647Z,43.69
2023-04-26T10:33:18.875Z,45.39
2023-04-26T10:36:05.743Z,44.01
2023-04-26T10:38:34.736Z,46.47
2023-04-26T10:41:32.113Z,46.19
2023-04-26T10:44:02.058Z,43.99
2023-04-26T10:46:39.608Z,42.28
2023-04-26T10:49:25.752Z,40.74
2023-04-26T10:52:13.545Z,43.40
2023-04-26T10:54:52.492Z,42.46
2023-04-26T10:57:21.598Z,42.10
2023-04-26T11:00:35.172Z,41.99
2023-04-26T11:03:13.260Z,40.50
2023-04-26T11:05:55.950Z,41.87
2023-04-26T11:08:30.452Z,44.30
2023-04-26T11:11:14.326Z,43.05
2023-04-26T11:13:45.548Z,43.16
2023-04-26T11:16:17.100Z,40.46
2023-04-26T11:18:48.525Z,41.90
2023-04-26T11:21:19.171Z,40.26
2023-04-26T11:23:54.909Z,41.12
2023-04-26T11:26:24.757Z,41.72
2023-04-26T11:28:53.314Z,41.99
2023-04-26T11:31:22.494Z,40.38
2023-04-26T11:33:54.183Z,41.15
2023-04-26T11:36:24.487Z,40.92
2023-04-26T11:38:52.620Z,40.29
2023-04-26T11:41:26.104Z,40.24
2023-04-26T11:43:55.697Z,41.44
2023-04-26T11:46:27.283Z,40.17
2023-04-26T11:49:00.723Z,38.77
2023-04-26T11:51:32.206Z,39.38
2023-04-26T11:54:06.932Z,41.80
2023-04-26T11:56:51.129Z,42.59
2023-04-26T11:59:39.035Z,39.96
2023-04-26T12:02:11.944Z,39.56
2023-04-26T12:04:45.970Z,38.57
2023-04-26T12:07:23.147Z,38.34
2023-04-26T12:10:00.306Z,41.36
2023-04-26T12:12:29.231Z,41.55
2023-04-26T12:14:57.756Z,38.82
2023-04-26T12:17:29.943Z,40.45
2023-04-26T12:19:59.533Z,40.10
2023-04-26T12:22:27.837Z,41.55
2023-04-26T12:25:06.090Z,39.37
2023-04-26T12:27:34.706Z,41.47
2023-04-26T12:30:03.781Z,39.61
2023-04-26T12:32:31.798Z,39.99
2023-04-26T12:35:01.275Z,38.67
2023-04-26T12:37:32.460Z,37.92
2023-04-26T12:40:01.882Z,38.09
2023-04-26T12:42:37.152Z,40.15
2023-04-26T12:45:06.652Z,39.43
2023-04-26T12:47:35.653Z,39.45
2023-04-26T12:50:06.345Z,37.54
2023-04-26T12:52:34.808Z,37.33
2023-04-26T12:55:05.532Z,36.91
2023-04-26T12:57:41.507Z,37.61
2023-04-26T13:00:16.316Z,34.64
2023-04-26T13:02:45.909Z,37.92
2023-04-26T13:05:18.371Z,38.44
2023-04-26T13:07:48.396Z,40.26
2023-04-26T13:10:20.422Z,41.43
2023-04-26T13:12:59.012Z,40.05
2023-04-26T13:15:27.477Z,38.96
2023-04-26T13:17:55.671Z,39.77
2023-04-26T13:20:28.900Z,39.45
2023-04-26T13:22:59.011Z,38.75
2023-04-26T13:25:29.107Z,40.05
2023-04-26T13:27:58.800Z,41.76
2023-04-26T13:30:31.500Z,41.44
2023-04-26T13:33:01.239Z,42.14
2023-04-26T13:35:31.523Z,43.72
2023-04-26T13:38:00.331Z,43.16
2023-04-26T13:40:39.648Z,40.54
2023-04-26T13:43:09.053Z,42.02
2023-04-26T13:45:39.003Z,42.29
2023-04-26T13:48:08.153Z,42.62
2023-04-26T13:50:50.696Z,43.56
2023-04-26T13:53:19.843Z,43.47
2023-04-26T13:55:48.027Z,43.72
2023-04-26T13:58:16.407Z,43.22
2023-04-26T14:00:46.992Z,42.80
2023-04-26T14:03:15.305Z,42.71
2023-04-26T14:05:44.731Z,40.91
2023-04-26T14:08:13.706Z,39.83
2023-04-26T14:10:42.072Z,40.15
2023-04-26T14:13:10.091Z,41.88
2023-04-26T14:15:38.117Z,40.42
2023-04-26T14:18:06.329Z,40.92
2023-04-26T14:20:34.357Z,41.80
2023-04-26T14:23:04.412Z,42.12
2023-04-26T14:25:32.696Z,42.35
2023-04-26T14:28:00.752Z,45.47
2023-04-26T14:30:29.856Z,44.14
2023-04-26T14:32:58.878Z,45.45
2023-04-26T14:35:27.448Z,44.18
2023-04-26T14:37:55.461Z,43.89
2023-04-26T14:40:25.237Z,44.17
2023-04-26T14:42:53.384Z,43.64
2023-04-26T14:45:25.579Z,45.15
2023-04-26T14:48:02.402Z,44.06
2023-04-26T14:50:31.043Z,44.21
2023-04-26T14:53:03.493Z,44.67
2023-04-26T14:55:34.551Z,45.65
2023-04-26T14:58:05.725Z,44.00
2023-04-26T15:00:34.133Z,44.55
2023-04-26T15:03:03.327Z,45.16
2023-04-26T15:05:32.974Z,43.04
2023-04-26T15:08:01.289Z,43.22
2023-04-26T15:10:29.920Z,42.58
2023-04-26T15:12:59.427Z,43.70
2023-04-26T15:15:27.740Z,43.39
2023-04-26T15:17:55.856Z,43.37
2023-04-26T15:20:24.487Z,43.42
2023-04-26T15:22:52.581Z,46.08
2023-04-26T15:25:21.181Z,44.70
2023-04-26T15:27:50.369Z,45.15
2023-04-26T15:30:19.855Z,43.51
2023-04-26T15:32:50.054Z,44.13
2023-04-26T15:35:18.827Z,46.09
2023-04-26T15:37:48.168Z,44.12
2023-04-26T15:40:17.418Z,44.95
2023-04-26T15:42:46.773Z,43.13
2023-04-26T15:45:15.421Z,43.46
2023-04-26T15:47:47.351Z,42.63
2023-04-26T15:50:18.717Z,44.51
2023-04-26T15:52:54.443Z,44.22
2023-04-26T15:55:40.206Z,44.19
2023-04-26T15:58:16.998Z,44.48
2023-04-26T16:00:51.877Z,45.21
2023-04-26T16:03:24.274Z,45.21
2023-04-26T16:05:54.950Z,45.19
2023-04-26T16:08:48.596Z,44.72
2023-04-26T16:11:25.775Z,45.45
2023-04-26T16:13:57.334Z,44.50
2023-04-26T16:16:37.153Z,43.82
2023-04-26T16:19:19.753Z,43.40
2023-04-26T16:22:03.872Z,45.37
2023-04-26T16:24:34.049Z,44.48
2023-04-26T16:27:02.965Z,42.35
2023-04-26T16:29:32.033Z,42.45
2023-04-26T16:32:03.748Z,42.65
2023-04-26T16:34:34.207Z,43.00
2023-04-26T16:37:02.425Z,44.37
2023-04-26T16:39:36.559Z,44.63
2023-04-26T16:42:07.323Z,44.88
2023-04-26T16:44:35.319Z,44.26
2023-04-26T16:47:04.000Z,42.81
2023-04-26T16:49:34.249Z,45.25
2023-04-26T16:52:02.140Z,43.75
2023-04-26T16:54:30.282Z,45.93
2023-04-26T16:56:58.308Z,44.98
2023-04-26T16:59:27.546Z,45.73
2023-04-26T17:01:55.859Z,46.23
2023-04-26T17:04:25.030Z,45.47
2023-04-26T17:06:54.944Z,45.18
2023-04-26T17:09:23.622Z,46.19
2023-04-26T17:11:52.307Z,45.84
2023-04-26T17:14:20.586Z,46.96
2023-04-26T17:16:48.585Z,46.73
2023-04-26T17:19:19.314Z,47.00
2023-04-26T17:21:47.445Z,46.00
2023-04-26T17:24:17.650Z,45.52
2023-04-26T17:26:46.604Z,45.34
2023-04-26T17:29:17.212Z,45.69
2023-04-26T17:31:47.292Z,46.37
2023-04-26T17:34:15.293Z,47.12
2023-04-26T17:36:45.530Z,47.04
2023-04-26T17:39:13.956Z,47.86
2023-04-26T17:41:44.168Z,48.23
2023-04-26T17:44:13.078Z,48.10
2023-04-26T17:46:42.671Z,47.84
2023-04-26T17:49:11.235Z,47.87
2023-04-26T17:51:40.050Z,47.35
2023-04-26T17:54:11.070Z,47.62
2023-04-26T17:56:39.292Z,46.68
2023-04-26T17:59:10.798Z,47.30
2023-04-26T18:01:43.419Z,47.82
2023-04-26T18:04:20.937Z,48.31
2023-04-26T18:06:49.155Z,48.09
2023-04-26T18:09:17.831Z,48.43
2023-04-26T18:11:51.892Z,47.77
2023-04-26T18:14:31.332Z,48.11
2023-04-26T18:17:01.675Z,48.29
2023-04-26T18:19:31.090Z,47.36
2023-04-26T18:21:59.575Z,47.77
2023-04-26T18:24:29.110Z,47.31
2023-04-26T18:26:58.151Z,47.74
2023-04-26T18:29:26.174Z,47.68
2023-04-26T18:31:55.831Z,48.13
2023-04-26T18:34:24.047Z,47.94
2023-04-26T18:36:52.037Z,47.24
2023-04-26T18:39:20.023Z,47.90
2023-04-26T18:41:48.318Z,47.65
2023-04-26T18:44:19.073Z,47.05
2023-04-26T18:46:47.218Z,47.62
2023-04-26T18:49:18.778Z,46.73
2023-04-26T18:51:46.990Z,47.95
2023-04-26T18:54:15.438Z,48.70
2023-04-26T18:56:44.094Z,48.16
2023-04-26T18:59:12.468Z,48.12
2023-04-26T19:01:42.873Z,48.92
2023-04-26T19:04:11.721Z,50.33
2023-04-26T19:06:46.014Z,50.32
2023-04-26T19:09:19.909Z,50.21
2023-04-26T19:11:48.145Z,49.55
2023-04-26T19:14:16.247Z,50.70
2023-04-26T19:16:44.294Z,50.66
2023-04-26T19:19:13.872Z,50.37
2023-04-26T19:21:43.422Z,51.24
2023-04-26T19:24:11.662Z,51.96
2023-04-26T19:26:39.734Z,52.47
2023-04-26T19:29:08.169Z,52.88
2023-04-26T19:31:36.609Z,52.78
2023-04-26T19:34:05.224Z,52.66
2023-04-26T19:36:34.891Z,52.81
2023-04-26T19:39:04.779Z,54.78
2023-04-26T19:41:32.916Z,55.12
2023-04-26T19:44:01.533Z,55.36
2023-04-26T19:46:29.711Z,55.40
2023-04-26T19:48:57.724Z,56.66
2023-04-26T19:51:25.904Z,57.61
2023-04-26T19:53:54.294Z,58.57
2023-04-26T19:56:29.735Z,57.16
2023-04-26T19:59:17.688Z,56.39
2023-04-26T20:01:45.993Z,56.57
2023-04-26T20:04:14.570Z,56.98
2023-04-26T20:06:42.784Z,57.20
2023-04-26T20:09:11.245Z,57.73
2023-04-26T20:11:40.621Z,56.89
2023-04-26T20:14:09.161Z,56.28
2023-04-26T20:16:37.296Z,55.92
2023-04-26T20:19:06.108Z,56.50
2023-04-26T20:21:36.873Z,56.90
2023-04-26T20:24:05.457Z,57.37
2023-04-26T20:26:33.563Z,57.82
2023-04-26T20:29:03.003Z,58.37
2023-04-26T20:31:31.132Z,58.29
2023-04-26T20:34:00.679Z,58.32
2023-04-26T20:36:29.042Z,59.71
2023-04-26T20:38:57.103Z,59.35
2023-04-26T20:41:25.458Z,59.17
2023-04-26T20:43:53.898Z,59.74
2023-04-26T20:46:23.703Z,60.64
2023-04-26T20:48:52.130Z,60.74
2023-04-26T20:51:20.312Z,61.08
2023-04-26T20:53:48.381Z,62.14
2023-04-26T20:56:16.505Z,62.41
2023-04-26T20:58:44.635Z,61.63
2023-04-26T21:01:12.584Z,61.47
2023-04-26T21:03:42.438Z,61.05
2023-04-26T21:06:10.791Z,60.62
2023-04-26T21:08:39.060Z,60.26
2023-04-26T21:11:07.110Z,60.73
2023-04-26T21:13:35.281Z,60.68
2023-04-26T21:16:03.794Z,60.29
2023-04-26T21:18:31.893Z,60.13
2023-04-26T21:21:01.644Z,60.18
2023-04-26T21:23:30.246Z,60.47
2023-04-26T21:25:58.214Z,60.86
2023-04-26T21:28:26.220Z,60.92
2023-04-26T21:31:04.308Z,62.07
2023-04-26T21:33:33.081Z,62.36
2023-04-26T21:36:05.462Z,62.30
2023-04-26T21:38:36.445Z,63.26
2023-04-26T21:41:04.873Z,64.24
2023-04-26T21:43:32.968Z,63.89
2023-04-26T21:46:03.685Z,63.08
2023-04-26T21:48:31.726Z,62.71
2023-04-26T21:50:59.873Z,63.23
2023-04-26T21:53:29.768Z,64.20
2023-04-26T21:55:57.927Z,63.95
2023-04-26T21:58:26.126Z,63.11
2023-04-26T22:00:54.611Z,62.64
2023-04-26T22:03:22.871Z,63.04
2023-04-26T22:05:51.286Z,63.88
2023-04-26T22:08:19.609Z,64.44
2023-04-26T22:10:49.085Z,64.52
2023-04-26T22:13:17.255Z,63.53
2023-04-26T22:15:45.613Z,62.45
2023-04-26T22:18:13.777Z,62.83
2023-04-26T22:20:42.022Z,63.10
2023-04-26T22:23:10.610Z,63.73
2023-04-26T22:25:39.386Z,64.30
2023-04-26T22:28:08.739Z,64.79
2023-04-26T22:30:36.947Z,63.63
2023-04-26T22:33:07.013Z,63.91
2023-04-26T22:35:36.358Z,63.76
2023-04-26T22:38:04.736Z,63.88
2023-04-26T22:40:33.390Z,63.56
2023-04-26T22:43:03.711Z,63.50
2023-04-26T22:45:33.686Z,63.87
2023-04-26T22:48:03.048Z,64.37
2023-04-26T22:50:31.367Z,65.90
2023-04-26T22:52:59.458Z,66.24
2023-04-26T22:55:27.836Z,67.42
2023-04-26T22:57:55.856Z,66.27
2023-04-26T23:00:25.877Z,65.99
2023-04-26T23:02:55.914Z,65.99
2023-04-26T23:05:24.315Z,66.37
2023-04-26T23:07:52.540Z,67.77
2023-04-26T23:10:21.137Z,68.44
2023-04-26T23:12:50.774Z,67.80
2023-04-26T23:15:18.848Z,66.77
2023-04-26T23:17:47.087Z,66.65
2023-04-26T23:20:16.612Z,66.20
2023-04-26T23:22:44.911Z,65.96
2023-04-26T23:25:12.820Z,66.24
2023-04-26T23:27:41.106Z,65.84
2023-04-26T23:30:09.907Z,65.75
2023-04-26T23:32:37.895Z,67.37
2023-04-26T23:35:06.752Z,68.33
2023-04-26T23:37:36.310Z,68.15
2023-04-26T23:40:06.479Z,68.44
2023-04-26T23:42:34.420Z,68.29
2023-04-26T23:45:02.570Z,68.69
2023-04-26T23:47:31.946Z,68.22
2023-04-26T23:50:00.394Z,69.09
2023-04-26T23:52:28.628Z,68.13
2023-04-26T23:54:57.978Z,69.35
2023-04-26T23:57:26.097Z,68.80
2023-04-26T23:59:54.219Z,69.22
